Madison Park, Washington
Current Conditions -  °F | °C
As of 5:53 AM on Monday 22 Dec 2014 (Local Time) from KBFI Reporting Station
Scattered Clouds Scattered Clouds  
Wind Chill: 45°   Ceiling: Unl
Heat Index: 45°   Visibility: 10mi
Dew Point: 38°   Wind: 3mph
Humidity: 76%   Direction: 330°NNW
Pressure: 30.24"   Gusts: NA
Location:  47.6326°N, 122.297°W
Report Text: KBFI 221353Z 33003KT 10SM FEW035 SCT085 07/03 A3024 RMK AO2 SLP240 T00720033
Loading
Personal Weather Stations






























Interactive Weather Map New forecast layout! Learn more

10-Day Weather Forecast

Advertisements
Track Severe Weather on mobile